createdAt,value
2017-08-29T00:00:10.696Z,26.50
2017-08-29T00:02:38.187Z,26.50
2017-08-29T00:05:05.671Z,26.70
2017-08-29T00:07:33.179Z,26.70
2017-08-29T00:10:00.671Z,26.40
2017-08-29T00:12:28.156Z,26.30
2017-08-29T00:14:55.666Z,26.40
2017-08-29T00:17:23.153Z,26.60
2017-08-29T00:19:50.654Z,26.70
2017-08-29T00:22:18.162Z,26.40
2017-08-29T00:24:45.633Z,26.20
2017-08-29T00:27:13.118Z,26.10
2017-08-29T00:29:40.612Z,26.20
2017-08-29T00:32:08.122Z,26.10
2017-08-29T00:34:35.610Z,26.40
2017-08-29T00:37:03.126Z,26.40
2017-08-29T00:39:30.619Z,26.30
2017-08-29T00:41:58.103Z,26.20
2017-08-29T00:44:25.624Z,26.30
2017-08-29T00:46:53.119Z,26.30
2017-08-29T00:49:20.602Z,26.20
2017-08-29T00:51:48.106Z,26.10
2017-08-29T00:54:15.596Z,26.00
2017-08-29T00:56:43.096Z,26.00
2017-08-29T00:59:10.610Z,26.10
2017-08-29T01:01:38.090Z,26.30
2017-08-29T01:04:05.582Z,26.30
2017-08-29T01:06:33.086Z,26.40
2017-08-29T01:09:00.576Z,26.10
2017-08-29T01:11:28.069Z,26.00
2017-08-29T01:13:55.582Z,25.90
2017-08-29T01:16:23.078Z,25.90
2017-08-29T01:18:50.558Z,25.90
2017-08-29T01:21:18.074Z,25.90
2017-08-29T01:23:45.575Z,25.90
2017-08-29T01:26:13.063Z,25.60
2017-08-29T01:28:40.579Z,25.90
2017-08-29T01:31:08.070Z,25.90
2017-08-29T01:33:35.563Z,25.80
2017-08-29T01:36:03.067Z,25.50
2017-08-29T01:38:30.550Z,25.80
2017-08-29T01:40:58.039Z,25.90
2017-08-29T01:43:25.538Z,25.20
2017-08-29T01:45:53.014Z,25.10
2017-08-29T01:48:20.516Z,25.20
2017-08-29T01:50:48.036Z,25.30
2017-08-29T01:53:15.518Z,25.10
2017-08-29T01:55:43.007Z,25.00
2017-08-29T01:58:10.529Z,24.90
2017-08-29T02:00:38.039Z,25.00
2017-08-29T02:03:05.531Z,25.40
2017-08-29T02:05:33.051Z,25.20
2017-08-29T02:08:00.526Z,25.40
2017-08-29T02:10:28.019Z,25.00
2017-08-29T02:12:55.518Z,24.80
2017-08-29T02:15:22.999Z,24.70
2017-08-29T02:17:50.481Z,24.70
2017-08-29T02:20:17.992Z,25.00
2017-08-29T02:22:45.470Z,24.80
2017-08-29T02:25:12.969Z,24.60
2017-08-29T02:27:40.473Z,24.40
2017-08-29T02:30:07.969Z,24.40
2017-08-29T02:32:35.461Z,24.40
2017-08-29T02:35:02.970Z,24.30
2017-08-29T02:37:30.449Z,24.20
2017-08-29T02:39:57.939Z,24.30
2017-08-29T02:42:25.466Z,24.50
2017-08-29T02:44:52.958Z,24.60
2017-08-29T02:47:20.440Z,24.70
2017-08-29T02:49:47.952Z,25.00
2017-08-29T02:52:15.453Z,25.30
2017-08-29T02:54:42.952Z,24.80
2017-08-29T02:57:10.460Z,24.50
2017-08-29T02:59:37.956Z,24.60
2017-08-29T03:02:05.439Z,24.40
2017-08-29T03:04:32.950Z,24.30
2017-08-29T03:07:00.440Z,24.30
2017-08-29T03:09:27.932Z,24.00
2017-08-29T03:11:55.451Z,24.00
2017-08-29T03:14:22.946Z,24.00
2017-08-29T03:16:50.437Z,24.30
2017-08-29T03:19:17.933Z,24.20
2017-08-29T03:21:45.425Z,24.00
2017-08-29T03:24:12.914Z,24.10
2017-08-29T03:26:40.422Z,24.10
2017-08-29T03:29:07.913Z,24.00
2017-08-29T03:31:35.407Z,24.00
2017-08-29T03:34:02.917Z,24.30
2017-08-29T03:36:30.403Z,24.30
2017-08-29T03:38:57.895Z,24.30
2017-08-29T03:41:25.406Z,23.90
2017-08-29T03:43:52.906Z,23.90
2017-08-29T03:46:20.399Z,23.90
2017-08-29T03:48:47.900Z,24.20
2017-08-29T03:51:15.384Z,24.00
2017-08-29T03:53:42.880Z,24.10
2017-08-29T03:56:10.385Z,23.90
2017-08-29T03:58:37.880Z,23.80
2017-08-29T04:01:05.358Z,23.90
2017-08-29T04:03:32.864Z,23.90
2017-08-29T04:06:00.342Z,23.70
2017-08-29T04:08:27.816Z,23.60
2017-08-29T04:10:55.348Z,23.50
2017-08-29T04:13:22.838Z,23.80
2017-08-29T04:15:50.344Z,23.90
2017-08-29T04:18:17.975Z,23.60
2017-08-29T04:20:45.457Z,23.70
2017-08-29T04:23:12.940Z,23.40
2017-08-29T04:25:40.462Z,23.50
2017-08-29T04:28:07.953Z,23.50
2017-08-29T04:30:35.460Z,23.50
2017-08-29T04:33:02.993Z,23.50
2017-08-29T04:35:30.474Z,23.50
2017-08-29T04:37:57.955Z,23.60
2017-08-29T04:40:25.470Z,23.60
2017-08-29T04:42:52.958Z,23.70
2017-08-29T04:45:20.453Z,23.80
2017-08-29T04:47:47.970Z,23.70
2017-08-29T04:50:15.451Z,23.40
2017-08-29T04:52:42.939Z,23.20
2017-08-29T04:55:10.457Z,23.20
2017-08-29T04:57:37.951Z,23.30
2017-08-29T05:00:05.431Z,23.40
2017-08-29T05:02:32.939Z,23.40
2017-08-29T05:05:00.439Z,23.20
2017-08-29T05:07:27.927Z,23.40
2017-08-29T05:09:55.438Z,23.40
2017-08-29T05:12:22.924Z,23.40
2017-08-29T05:14:50.408Z,23.30
2017-08-29T05:17:18.825Z,23.40
2017-08-29T05:19:46.314Z,23.30
2017-08-29T05:22:13.799Z,23.30
2017-08-29T05:24:41.307Z,23.30
2017-08-29T05:27:08.802Z,23.30
2017-08-29T05:29:36.290Z,23.40
2017-08-29T05:32:03.796Z,23.30
2017-08-29T05:34:31.285Z,23.30
2017-08-29T05:36:58.766Z,23.40
2017-08-29T05:39:26.274Z,23.90
2017-08-29T05:41:53.774Z,24.00
2017-08-29T05:44:21.265Z,24.40
2017-08-29T05:46:48.784Z,24.60
2017-08-29T05:49:16.274Z,24.10
2017-08-29T05:51:43.783Z,24.10
2017-08-29T05:54:11.289Z,24.20
2017-08-29T05:56:38.774Z,24.40
2017-08-29T05:59:06.290Z,24.60
2017-08-29T06:01:33.789Z,24.70
2017-08-29T06:04:01.281Z,24.40
2017-08-29T06:06:28.769Z,24.30
2017-08-29T06:08:56.279Z,24.20
2017-08-29T06:11:23.779Z,24.00
2017-08-29T06:13:51.284Z,24.30
2017-08-29T06:16:18.799Z,24.10
2017-08-29T06:18:46.290Z,24.30
2017-08-29T06:21:13.856Z,24.30
2017-08-29T06:23:41.362Z,24.10
2017-08-29T06:26:08.842Z,24.00
2017-08-29T06:28:36.338Z,24.30
2017-08-29T06:31:03.858Z,24.30
2017-08-29T06:33:31.362Z,24.20
2017-08-29T06:35:58.851Z,24.10
2017-08-29T06:38:26.358Z,24.00
2017-08-29T06:40:53.851Z,24.10
2017-08-29T06:43:21.335Z,24.10
2017-08-29T06:45:48.854Z,24.20
2017-08-29T06:48:16.350Z,24.90
2017-08-29T06:50:43.849Z,24.90
2017-08-29T06:53:11.381Z,25.00
2017-08-29T06:55:38.865Z,25.10
2017-08-29T06:58:06.349Z,25.10
2017-08-29T07:00:33.854Z,25.70
2017-08-29T07:03:01.334Z,25.40
2017-08-29T07:05:28.818Z,25.10
2017-08-29T07:07:56.325Z,25.20
2017-08-29T07:10:23.814Z,25.20
2017-08-29T07:12:51.307Z,25.40
2017-08-29T07:15:18.822Z,25.40
2017-08-29T07:17:46.317Z,25.30
2017-08-29T07:20:13.805Z,25.50
2017-08-29T07:22:41.319Z,25.20
2017-08-29T07:25:08.812Z,25.40
2017-08-29T07:27:36.306Z,25.40
2017-08-29T07:30:03.807Z,25.40
2017-08-29T07:32:31.300Z,25.40
2017-08-29T07:34:58.786Z,25.60
2017-08-29T07:37:26.282Z,26.00
2017-08-29T07:39:53.771Z,26.10
2017-08-29T07:42:21.273Z,26.00
2017-08-29T07:44:48.774Z,26.00
2017-08-29T07:47:16.248Z,25.60
2017-08-29T07:49:43.734Z,25.60
2017-08-29T07:52:11.253Z,25.60
2017-08-29T07:54:38.736Z,25.90
2017-08-29T07:57:06.209Z,25.90
2017-08-29T07:59:33.705Z,25.90
2017-08-29T08:02:01.189Z,26.20
2017-08-29T08:04:28.661Z,26.20
2017-08-29T08:06:56.157Z,26.40
2017-08-29T08:09:23.649Z,26.20
2017-08-29T08:11:51.138Z,26.00
2017-08-29T08:14:18.644Z,25.80
2017-08-29T08:16:46.136Z,25.80
2017-08-29T08:19:13.615Z,25.70
2017-08-29T08:21:41.113Z,26.00
2017-08-29T08:24:08.597Z,26.20
2017-08-29T08:26:36.079Z,25.90
2017-08-29T08:29:03.586Z,25.90
2017-08-29T08:31:31.085Z,26.00
2017-08-29T08:33:58.565Z,26.10
2017-08-29T08:36:26.069Z,26.10
2017-08-29T08:38:53.565Z,26.40
2017-08-29T08:41:21.067Z,26.40
2017-08-29T08:43:48.575Z,26.50
2017-08-29T08:46:16.054Z,26.60
2017-08-29T08:48:43.544Z,26.70
2017-08-29T08:51:11.060Z,26.40
2017-08-29T08:53:38.546Z,26.50
2017-08-29T08:56:06.038Z,26.60
2017-08-29T08:58:33.551Z,26.80
2017-08-29T09:01:01.034Z,26.70
2017-08-29T09:03:28.523Z,26.50
2017-08-29T09:05:56.031Z,26.70
2017-08-29T09:08:23.520Z,26.70
2017-08-29T09:10:50.994Z,26.60
2017-08-29T09:13:18.592Z,26.80
2017-08-29T09:15:46.077Z,26.90
2017-08-29T09:18:13.556Z,26.80
2017-08-29T09:20:41.070Z,26.90
2017-08-29T09:23:08.629Z,26.90
2017-08-29T09:25:36.119Z,26.90
2017-08-29T09:28:03.630Z,27.00
2017-08-29T09:30:31.109Z,27.00
2017-08-29T09:32:58.596Z,27.00
2017-08-29T09:35:26.107Z,27.00
2017-08-29T09:37:53.583Z,27.10
2017-08-29T09:40:21.077Z,27.20
2017-08-29T09:42:48.611Z,27.20
2017-08-29T09:45:16.090Z,27.20
2017-08-29T09:47:43.583Z,27.20
2017-08-29T09:50:11.080Z,27.20
2017-08-29T09:52:38.561Z,27.10
2017-08-29T09:55:06.063Z,27.20
2017-08-29T09:57:33.569Z,27.20
2017-08-29T10:00:01.062Z,27.20
2017-08-29T10:02:28.558Z,27.50
2017-08-29T10:04:56.086Z,27.30
2017-08-29T10:07:23.588Z,27.30
2017-08-29T10:09:51.061Z,27.60
2017-08-29T10:12:18.575Z,27.50
2017-08-29T10:14:46.062Z,27.70
2017-08-29T10:17:13.560Z,28.10
2017-08-29T10:19:41.061Z,28.40
2017-08-29T10:22:08.543Z,28.70
2017-08-29T10:24:36.032Z,28.70
2017-08-29T10:27:03.543Z,28.70
2017-08-29T10:29:31.031Z,29.00
2017-08-29T10:31:58.509Z,28.80
2017-08-29T10:34:26.022Z,29.10
2017-08-29T10:36:53.502Z,29.10
2017-08-29T10:39:20.994Z,29.00
2017-08-29T10:41:48.489Z,29.20
2017-08-29T10:44:15.962Z,29.20
2017-08-29T10:46:43.446Z,29.00
2017-08-29T10:49:10.952Z,29.10
2017-08-29T10:51:38.442Z,29.30
2017-08-29T10:54:05.930Z,28.90
2017-08-29T10:56:33.434Z,28.80
2017-08-29T10:59:00.909Z,28.60
2017-08-29T11:01:28.406Z,28.80
2017-08-29T11:03:55.913Z,29.10
2017-08-29T11:06:23.401Z,29.00
2017-08-29T11:08:50.888Z,29.00
2017-08-29T11:11:18.401Z,28.60
2017-08-29T11:13:45.959Z,28.30
2017-08-29T11:16:13.442Z,28.50
2017-08-29T11:18:40.948Z,28.30
2017-08-29T11:21:08.438Z,28.40
2017-08-29T11:23:35.914Z,28.40
2017-08-29T11:26:03.439Z,28.20
2017-08-29T11:28:30.930Z,28.50
2017-08-29T11:30:58.405Z,28.40
2017-08-29T11:33:26.134Z,28.70
2017-08-29T11:35:53.630Z,28.70
2017-08-29T11:38:21.126Z,28.60
2017-08-29T11:40:48.649Z,28.60
2017-08-29T11:43:16.129Z,28.70
2017-08-29T11:45:43.655Z,28.60
2017-08-29T11:48:11.148Z,28.70
2017-08-29T11:50:38.634Z,28.80
2017-08-29T11:53:06.139Z,28.60
2017-08-29T11:55:33.661Z,28.90
2017-08-29T11:58:01.143Z,28.90
2017-08-29T12:00:28.628Z,29.00
2017-08-29T12:02:56.145Z,29.10
2017-08-29T12:05:23.740Z,29.10
2017-08-29T12:07:51.223Z,29.20
2017-08-29T12:10:18.749Z,29.20
2017-08-29T12:12:46.258Z,29.20
2017-08-29T12:15:13.743Z,29.10
2017-08-29T12:17:41.264Z,29.00
2017-08-29T12:20:08.749Z,29.10
2017-08-29T12:22:36.237Z,28.80
2017-08-29T12:25:03.763Z,28.90
2017-08-29T12:27:31.257Z,28.40
2017-08-29T12:29:58.742Z,28.30
2017-08-29T12:32:26.253Z,28.70
2017-08-29T12:34:53.751Z,29.00
2017-08-29T12:37:21.234Z,28.80
2017-08-29T12:39:48.746Z,28.50
2017-08-29T12:42:16.235Z,29.20
2017-08-29T12:44:43.735Z,29.30
2017-08-29T12:47:11.253Z,29.00
2017-08-29T12:49:38.738Z,29.20
2017-08-29T12:52:06.219Z,29.50
2017-08-29T12:54:33.737Z,29.50
2017-08-29T12:57:01.209Z,29.20
2017-08-29T12:59:28.691Z,29.20
2017-08-29T13:01:56.532Z,28.90
2017-08-29T13:04:24.025Z,29.30
2017-08-29T13:06:51.515Z,29.30
2017-08-29T13:09:19.015Z,29.30
2017-08-29T13:11:46.503Z,28.90
2017-08-29T13:14:14.017Z,29.30
2017-08-29T13:16:41.530Z,29.60
2017-08-29T13:19:09.014Z,29.70
2017-08-29T13:21:36.502Z,29.70
2017-08-29T13:24:04.026Z,29.50
2017-08-29T13:26:31.512Z,29.50
2017-08-29T13:28:59.027Z,29.70
2017-08-29T13:31:26.539Z,29.40
2017-08-29T13:33:54.033Z,29.40
2017-08-29T13:36:21.518Z,29.60
2017-08-29T13:38:49.020Z,29.80
2017-08-29T13:41:16.507Z,29.50
2017-08-29T13:43:43.995Z,29.80
2017-08-29T13:46:11.502Z,29.80
2017-08-29T13:48:38.986Z,29.80
2017-08-29T13:51:06.490Z,29.70
2017-08-29T13:53:34.010Z,29.80
2017-08-29T13:56:01.507Z,29.90
2017-08-29T13:58:28.993Z,29.90
2017-08-29T14:00:56.510Z,29.90
2017-08-29T14:03:24.023Z,29.40
2017-08-29T14:05:51.518Z,29.00
2017-08-29T14:08:19.026Z,29.40
2017-08-29T14:10:46.503Z,29.90
2017-08-29T14:13:13.999Z,30.00
2017-08-29T14:15:41.535Z,30.00
2017-08-29T14:18:09.036Z,30.10
2017-08-29T14:20:36.527Z,30.00
2017-08-29T14:23:04.045Z,30.10
2017-08-29T14:25:31.522Z,29.70
2017-08-29T14:27:59.000Z,30.00
2017-08-29T14:30:26.514Z,29.90
2017-08-29T14:32:54.002Z,29.90
2017-08-29T14:35:21.486Z,30.20
2017-08-29T14:37:49.000Z,30.00
2017-08-29T14:40:16.492Z,30.10
2017-08-29T14:42:43.966Z,30.00
2017-08-29T14:45:11.475Z,30.10
2017-08-29T14:47:51.047Z,29.70
2017-08-29T14:50:18.554Z,29.80
2017-08-29T14:52:46.033Z,29.90
2017-08-29T14:55:13.514Z,30.00
2017-08-29T14:57:41.015Z,29.80
2017-08-29T15:00:08.507Z,29.80
2017-08-29T15:02:36.006Z,29.50
2017-08-29T15:05:03.531Z,29.60
2017-08-29T15:07:31.013Z,29.90
2017-08-29T15:09:58.497Z,30.00
2017-08-29T15:12:26.018Z,29.90
2017-08-29T15:14:53.502Z,30.00
2017-08-29T15:17:20.982Z,29.60
2017-08-29T15:19:48.500Z,29.50
2017-08-29T15:22:15.981Z,29.40
2017-08-29T15:24:43.462Z,29.40
2017-08-29T15:27:10.993Z,29.10
2017-08-29T15:29:38.526Z,29.50
2017-08-29T15:32:06.011Z,30.00
2017-08-29T15:34:33.546Z,30.00
2017-08-29T15:37:01.022Z,30.00
2017-08-29T15:39:28.527Z,30.00
2017-08-29T15:41:56.048Z,30.00
2017-08-29T15:44:23.535Z,30.10
2017-08-29T15:46:51.053Z,29.90
2017-08-29T15:49:18.571Z,30.00
2017-08-29T15:51:46.062Z,30.00
2017-08-29T15:54:13.559Z,29.80
2017-08-29T15:56:41.073Z,29.80
2017-08-29T15:59:08.567Z,29.90
2017-08-29T16:01:36.075Z,29.90
2017-08-29T16:04:03.594Z,30.00
2017-08-29T16:06:31.074Z,29.80
2017-08-29T16:08:58.550Z,29.70
2017-08-29T16:11:26.073Z,29.70
2017-08-29T16:13:53.569Z,29.90
2017-08-29T16:16:21.070Z,29.80
2017-08-29T16:18:48.577Z,29.80
2017-08-29T16:21:16.063Z,29.60
2017-08-29T16:23:43.547Z,29.60
2017-08-29T16:26:11.069Z,29.50
2017-08-29T16:28:38.544Z,29.50
2017-08-29T16:31:06.030Z,29.40
2017-08-29T16:33:33.541Z,29.50
2017-08-29T16:36:01.031Z,29.50
2017-08-29T16:38:28.518Z,29.40
2017-08-29T16:40:56.052Z,29.40
2017-08-29T16:43:23.548Z,29.40
2017-08-29T16:45:51.036Z,29.50
2017-08-29T16:48:18.559Z,29.30
2017-08-29T16:50:46.095Z,29.20
2017-08-29T16:53:13.570Z,29.10
2017-08-29T16:55:41.091Z,29.20
2017-08-29T16:58:08.674Z,29.20
2017-08-29T17:00:36.158Z,29.10
2017-08-29T17:03:03.674Z,29.00
2017-08-29T17:05:31.149Z,28.90
2017-08-29T17:07:58.613Z,28.90
2017-08-29T17:10:26.149Z,29.00
2017-08-29T17:12:53.626Z,29.00
2017-08-29T17:15:21.114Z,28.90
2017-08-29T17:17:48.622Z,28.90
2017-08-29T17:20:16.105Z,28.80
2017-08-29T17:22:43.587Z,28.70
2017-08-29T17:25:11.093Z,28.70
2017-08-29T17:27:38.591Z,28.70
2017-08-29T17:30:06.070Z,28.70
2017-08-29T17:32:33.582Z,28.50
2017-08-29T17:35:01.052Z,28.20
2017-08-29T17:37:28.525Z,27.70
2017-08-29T17:39:56.039Z,27.40
2017-08-29T17:42:23.531Z,27.20
2017-08-29T17:44:51.096Z,27.10
2017-08-29T17:47:18.611Z,27.10
2017-08-29T17:49:49.081Z,27.10
2017-08-29T17:52:16.742Z,27.20
2017-08-29T17:54:44.252Z,27.40
2017-08-29T17:57:11.767Z,27.50
2017-08-29T17:59:40.716Z,27.50
2017-08-29T18:02:08.423Z,27.40
2017-08-29T18:04:35.911Z,27.50
2017-08-29T18:07:03.403Z,27.40
2017-08-29T18:09:30.959Z,27.30
2017-08-29T18:11:58.768Z,27.30
2017-08-29T18:14:26.665Z,27.30
2017-08-29T18:16:54.187Z,27.30
2017-08-29T18:19:21.682Z,27.30
2017-08-29T18:21:49.164Z,27.30
2017-08-29T18:24:16.674Z,27.20
2017-08-29T18:26:44.150Z,27.20
2017-08-29T18:29:11.626Z,27.20
2017-08-29T18:31:39.157Z,27.10
2017-08-29T18:34:06.639Z,27.20
2017-08-29T18:36:34.127Z,27.10
2017-08-29T18:39:01.650Z,27.10
2017-08-29T18:41:29.128Z,27.10
2017-08-29T18:43:56.617Z,27.10
2017-08-29T18:46:24.137Z,27.10
2017-08-29T18:48:51.630Z,27.20
2017-08-29T18:51:19.106Z,27.10
2017-08-29T18:53:46.609Z,27.00
2017-08-29T18:56:14.098Z,27.10
2017-08-29T18:58:41.600Z,27.10
2017-08-29T19:01:09.119Z,27.10
2017-08-29T19:03:36.685Z,27.10
2017-08-29T19:06:04.167Z,27.10
2017-08-29T19:08:31.696Z,27.20
2017-08-29T19:10:59.200Z,27.10
2017-08-29T19:13:26.687Z,27.10
2017-08-29T19:15:54.222Z,27.20
2017-08-29T19:18:21.710Z,27.20
2017-08-29T19:20:49.209Z,27.20
2017-08-29T19:23:16.730Z,27.10
2017-08-29T19:25:44.258Z,27.20
2017-08-29T19:28:11.763Z,27.20
2017-08-29T19:30:39.282Z,27.10
2017-08-29T19:33:06.771Z,27.00
2017-08-29T19:35:34.268Z,27.00
2017-08-29T19:38:01.786Z,27.00
2017-08-29T19:40:29.288Z,27.10
2017-08-29T19:42:56.770Z,27.00
2017-08-29T19:48:16.079Z,27.10
2017-08-29T19:53:30.936Z,27.10
2017-08-29T19:56:09.134Z,27.10
2017-08-29T19:58:47.995Z,27.10
2017-08-29T20:01:24.091Z,27.10
2017-08-29T20:04:00.733Z,27.00
2017-08-29T20:06:39.543Z,27.20
2017-08-29T20:09:18.267Z,27.20
2017-08-29T20:11:57.930Z,27.20
2017-08-29T20:19:58.687Z,27.00
2017-08-29T20:22:30.076Z,27.00
2017-08-29T20:24:58.720Z,26.80
2017-08-29T20:27:27.209Z,26.70
2017-08-29T20:29:55.479Z,26.80
2017-08-29T20:32:24.063Z,26.80
2017-08-29T20:34:52.029Z,26.80
2017-08-29T20:37:20.592Z,26.80
2017-08-29T20:39:48.583Z,26.80
2017-08-29T20:42:17.516Z,26.80
2017-08-29T20:44:45.668Z,26.70
2017-08-29T20:47:14.057Z,26.70
2017-08-29T20:49:43.163Z,26.60
2017-08-29T20:52:11.581Z,26.50
2017-08-29T20:54:40.441Z,26.40
2017-08-29T20:57:08.473Z,26.70
2017-08-29T20:59:36.516Z,26.70
2017-08-29T21:02:05.042Z,26.70
2017-08-29T21:04:37.570Z,26.70
2017-08-29T21:07:06.066Z,26.60
2017-08-29T21:09:36.133Z,26.60
2017-08-29T21:12:05.271Z,26.60
2017-08-29T21:14:33.996Z,26.60
2017-08-29T21:17:02.184Z,26.60
2017-08-29T21:19:30.356Z,26.40
2017-08-29T21:21:58.828Z,26.40
2017-08-29T21:24:27.389Z,26.30
2017-08-29T21:26:55.859Z,26.50
2017-08-29T21:29:25.162Z,26.40
2017-08-29T21:31:54.292Z,26.50
2017-08-29T21:34:22.137Z,26.60
2017-08-29T21:36:51.290Z,26.40
2017-08-29T21:39:19.536Z,26.30
2017-08-29T21:41:47.650Z,26.30
2017-08-29T21:44:16.636Z,26.20
2017-08-29T21:46:44.887Z,26.40
2017-08-29T21:49:13.173Z,26.50
2017-08-29T21:51:40.918Z,26.30
2017-08-29T21:54:08.537Z,26.40
2017-08-29T21:56:37.273Z,26.30
2017-08-29T21:59:05.557Z,26.20
2017-08-29T22:01:33.821Z,26.20
2017-08-29T22:04:02.789Z,26.30
2017-08-29T22:06:30.890Z,26.20
2017-08-29T22:08:58.996Z,26.00
2017-08-29T22:11:27.159Z,26.10
2017-08-29T22:13:55.133Z,26.30
2017-08-29T22:16:24.060Z,26.30
2017-08-29T22:18:52.277Z,26.00
2017-08-29T22:21:19.934Z,26.10
2017-08-29T22:23:48.342Z,26.10
2017-08-29T22:26:15.948Z,26.00
2017-08-29T22:28:44.458Z,25.70
2017-08-29T22:31:12.775Z,25.50
2017-08-29T22:33:40.939Z,25.50
2017-08-29T22:36:08.786Z,25.60
2017-08-29T22:38:36.552Z,25.70
2017-08-29T22:41:04.482Z,25.80
2017-08-29T22:43:32.507Z,25.70
2017-08-29T22:46:00.526Z,25.70
2017-08-29T22:48:28.635Z,25.80
2017-08-29T22:50:56.536Z,26.00
2017-08-29T22:53:24.490Z,26.00
2017-08-29T22:55:52.652Z,25.80
2017-08-29T22:58:21.038Z,25.40
2017-08-29T23:00:48.647Z,25.30
2017-08-29T23:03:16.468Z,25.20
2017-08-29T23:05:44.018Z,25.70
2017-08-29T23:08:11.503Z,25.80
2017-08-29T23:10:39.064Z,25.80
2017-08-29T23:13:06.555Z,25.70
2017-08-29T23:15:34.428Z,25.40
2017-08-29T23:18:02.585Z,25.60
2017-08-29T23:20:30.641Z,25.80
2017-08-29T23:22:58.375Z,25.50
2017-08-29T23:25:26.675Z,25.60
2017-08-29T23:27:54.395Z,25.80
2017-08-29T23:30:22.720Z,25.80
2017-08-29T23:32:50.780Z,25.70
2017-08-29T23:35:19.081Z,25.60
2017-08-29T23:37:46.723Z,25.60
2017-08-29T23:40:14.787Z,25.30
2017-08-29T23:42:42.520Z,25.10
2017-08-29T23:45:11.851Z,25.00
2017-08-29T23:47:40.021Z,25.10
2017-08-29T23:50:08.114Z,25.50
2017-08-29T23:52:36.139Z,25.60
2017-08-29T23:55:04.264Z,25.70
2017-08-29T23:57:32.214Z,25.50
